Time;durP1;ratioP1;P1;durP2;ratioP2;P2;SDS_P1;SDS_P2;PMS_P1;PMS_P2;Temp;Humidity;BMP_temperature;BMP_pressure;BME280_temperature;BME280_humidity;BME280_pressure;Samples;Min_cycle;Max_cycle;Signal;HPM_P1;HPM_P2
2023/08/26 00:02:26;;;;;;;17.90;11.20;;;;;;;19.51;100.00;99086.45;108932;1259;58384;-65
2023/08/26 00:05:13;;;;;;;21.30;12.10;;;;;;;19.51;100.00;99088.69;108982;1258;60246;-62
2023/08/26 00:08:01;;;;;;;22.30;13.40;;;;;;;19.49;100.00;99087.73;109001;1258;73803;-61
2023/08/26 00:10:47;;;;;;;18.90;13.10;;;;;;;19.47;100.00;99083.77;109037;1258;67831;-61
2023/08/26 00:13:33;;;;;;;20.70;13.30;;;;;;;19.45;100.00;99083.60;109072;1258;72463;-63
2023/08/26 00:16:19;;;;;;;22.60;13.70;;;;;;;19.46;100.00;99082.40;108998;1258;58889;-61
2023/08/26 00:19:05;;;;;;;19.10;12.80;;;;;;;19.47;100.00;99082.98;109045;1258;59134;-62
2023/08/26 00:21:52;;;;;;;20.80;13.90;;;;;;;19.49;100.00;99077.38;109055;1258;71848;-63
2023/08/26 00:24:39;;;;;;;21.90;14.20;;;;;;;19.50;100.00;99070.95;109029;1258;68829;-63
2023/08/26 00:27:25;;;;;;;19.50;13.60;;;;;;;19.50;100.00;99065.66;109008;1259;72269;-63
2023/08/26 00:30:11;;;;;;;20.20;13.80;;;;;;;19.51;100.00;99066.45;109003;1258;59777;-63
2023/08/26 00:32:58;;;;;;;22.30;14.40;;;;;;;19.50;100.00;99068.71;109035;1258;59297;-63
2023/08/26 00:35:44;;;;;;;19.10;13.30;;;;;;;19.49;100.00;99071.57;109015;1258;74064;-63
2023/08/26 00:38:30;;;;;;;19.20;13.50;;;;;;;19.45;100.00;99072.15;109041;1258;66599;-62
2023/08/26 00:41:16;;;;;;;15.30;11.40;;;;;;;19.39;100.00;99086.20;108956;1258;73804;-63
2023/08/26 00:44:03;;;;;;;17.00;11.50;;;;;;;19.34;100.00;99092.09;109014;1258;60565;-62
2023/08/26 00:46:50;;;;;;;17.80;11.70;;;;;;;19.28;100.00;99085.63;109022;1258;59026;-63
2023/08/26 00:49:36;;;;;;;16.90;11.40;;;;;;;19.23;100.00;99079.14;109027;1260;73148;-62
2023/08/26 00:52:23;;;;;;;21.20;11.80;;;;;;;19.18;100.00;99073.55;109055;1258;67791;-62
2023/08/26 00:55:10;;;;;;;17.40;11.20;;;;;;;19.15;100.00;99072.20;108994;1258;73606;-63
2023/08/26 00:57:57;;;;;;;18.50;12.50;;;;;;;19.10;100.00;99076.25;108993;1258;59640;-62
2023/08/26 01:00:44;;;;;;;17.20;12.20;;;;;;;19.08;100.00;99074.73;109031;1258;59360;-63
2023/08/26 01:03:30;;;;;;;17.00;12.60;;;;;;;19.08;100.00;99073.82;109021;1258;74102;-63
2023/08/26 01:06:17;;;;;;;16.70;12.50;;;;;;;19.09;100.00;99071.21;109063;1258;67744;-63
2023/08/26 01:09:03;;;;;;;21.10;12.20;;;;;;;19.04;100.00;99070.73;109094;1259;72758;-63
2023/08/26 01:12:14;;;;;;;21.30;12.00;;;;;;;19.03;100.00;99081.06;109058;1258;59955;-62
2023/08/26 01:15:10;;;;;;;20.50;13.10;;;;;;;18.97;100.00;99080.80;109142;1258;58905;-63
2023/08/26 01:17:59;;;;;;;21.30;14.70;;;;;;;18.86;100.00;99083.02;109085;1257;74137;-63
2023/08/26 01:20:45;;;;;;;18.60;13.70;;;;;;;18.80;100.00;99086.19;109134;1257;68755;-64
2023/08/26 01:23:42;;;;;;;19.70;13.20;;;;;;;18.75;100.00;99082.16;109079;1257;72951;-64
2023/08/26 01:26:28;;;;;;;21.60;13.70;;;;;;;18.68;100.00;99081.20;109029;1257;59338;-62
2023/08/26 01:29:15;;;;;;;20.70;14.60;;;;;;;18.63;100.00;99088.52;109102;1257;61347;-65
2023/08/26 01:32:52;;;;;;;21.00;13.80;;;;;;;18.60;100.00;99091.75;109123;1258;71776;-62
2023/08/26 01:35:41;;;;;;;19.60;14.00;;;;;;;18.53;100.00;99100.66;108981;1257;68868;-62
2023/08/26 01:38:29;;;;;;;21.30;13.50;;;;;;;18.49;100.00;99097.55;109063;1257;71697;-62
2023/08/26 01:41:19;;;;;;;19.40;13.20;;;;;;;18.47;100.00;99094.79;109035;1257;59432;-62
2023/08/26 01:44:07;;;;;;;20.70;13.50;;;;;;;18.44;100.00;99095.80;109101;1257;60660;-61
2023/08/26 01:46:53;;;;;;;19.70;13.70;;;;;;;18.40;100.00;99100.95;109067;1257;71715;-62
2023/08/26 01:49:40;;;;;;;19.00;13.80;;;;;;;18.40;100.00;99093.79;109119;1257;68710;-62
2023/08/26 01:52:26;;;;;;;18.40;13.80;;;;;;;18.40;100.00;99097.52;109144;1257;72544;-63
2023/08/26 01:55:12;;;;;;;20.00;13.80;;;;;;;18.39;100.00;99097.46;109079;1257;60495;-62
2023/08/26 01:57:59;;;;;;;20.80;14.60;;;;;;;18.37;100.00;99097.99;109081;1258;60450;-62
2023/08/26 02:00:45;;;;;;;18.80;13.90;;;;;;;18.35;100.00;99095.95;108998;1258;73752;-63
2023/08/26 02:03:31;;;;;;;20.40;14.90;;;;;;;18.34;100.00;99091.92;109081;1258;67775;-62
2023/08/26 02:06:18;;;;;;;21.10;14.60;;;;;;;18.31;100.00;99086.34;109066;1258;71583;-61
2023/08/26 02:09:04;;;;;;;21.40;16.00;;;;;;;18.30;100.00;99080.23;108996;1258;58374;-63
2023/08/26 02:11:51;;;;;;;21.70;15.10;;;;;;;18.29;100.00;99076.50;109024;1258;60315;-63
2023/08/26 02:14:37;;;;;;;19.40;14.50;;;;;;;18.24;100.00;99076.58;109041;1258;73820;-64
2023/08/26 02:17:23;;;;;;;21.10;15.10;;;;;;;18.26;100.00;99081.65;109057;1258;68242;-63
2023/08/26 02:20:10;;;;;;;21.00;16.40;;;;;;;18.25;100.00;99082.34;109029;1259;73672;-61
2023/08/26 02:22:56;;;;;;;22.40;14.80;;;;;;;18.22;100.00;99077.02;109069;1258;59565;-63
2023/08/26 02:25:43;;;;;;;25.20;17.10;;;;;;;18.23;100.00;99076.33;109097;1259;58978;-64
2023/08/26 02:28:30;;;;;;;23.00;16.30;;;;;;;18.22;100.00;99077.86;109017;1258;73024;-63
2023/08/26 02:31:16;;;;;;;21.70;15.90;;;;;;;18.20;100.00;99076.16;109006;1258;67675;-63
2023/08/26 02:34:03;;;;;;;21.40;15.90;;;;;;;18.17;100.00;99081.56;108994;1260;72495;-63
2023/08/26 02:36:49;;;;;;;21.30;15.70;;;;;;;18.16;100.00;99075.34;109016;1260;60377;-63
2023/08/26 02:39:36;;;;;;;21.00;16.40;;;;;;;18.16;100.00;99070.70;109055;1258;60320;-64
2023/08/26 02:42:22;;;;;;;25.80;17.40;;;;;;;18.15;100.00;99069.34;109016;1258;73044;-63
2023/08/26 02:45:09;;;;;;;23.70;17.10;;;;;;;18.12;100.00;99068.48;109025;1258;67332;-61
2023/08/26 02:47:57;;;;;;;22.10;17.00;;;;;;;18.11;100.00;99064.48;109027;1258;71426;-64
2023/08/26 02:50:44;;;;;;;21.80;16.90;;;;;;;18.09;100.00;99061.11;108990;1259;60336;-63
2023/08/26 02:53:30;;;;;;;23.10;17.20;;;;;;;18.09;100.00;99053.49;109030;1258;60330;-62
2023/08/26 02:56:17;;;;;;;25.20;16.40;;;;;;;18.07;100.00;99044.44;109108;1258;74046;-62
2023/08/26 02:59:03;;;;;;;24.50;17.50;;;;;;;18.03;100.00;99043.04;109076;1258;66564;-64
2023/08/26 03:02:04;;;;;;;26.50;16.20;;;;;;;17.99;100.00;99045.35;108999;1259;72741;-63
2023/08/26 03:04:52;;;;;;;23.90;16.00;;;;;;;18.04;100.00;99059.64;108905;1258;59592;-63
2023/08/26 03:07:38;;;;;;;21.70;16.20;;;;;;;18.02;100.00;99053.52;109028;1258;60334;-63
2023/08/26 03:10:24;;;;;;;21.90;16.60;;;;;;;18.02;100.00;99048.05;109074;1258;73979;-62
2023/08/26 03:13:10;;;;;;;22.10;16.70;;;;;;;17.99;100.00;99057.13;109113;1257;67747;-64
2023/08/26 03:16:05;;;;;;;22.80;17.00;;;;;;;17.94;100.00;99057.19;109108;1257;72512;-62
2023/08/26 03:18:51;;;;;;;23.60;17.70;;;;;;;17.92;100.00;99064.04;109105;1257;60367;-62
2023/08/26 03:21:37;;;;;;;22.70;17.50;;;;;;;17.88;100.00;99066.42;109105;1257;60176;-62
2023/08/26 03:24:23;;;;;;;21.50;16.70;;;;;;;17.84;100.00;99073.00;109102;1257;73402;-60
2023/08/26 03:27:09;;;;;;;23.20;16.80;;;;;;;17.83;100.00;99067.98;109089;1262;68149;-63
2023/08/26 03:29:56;;;;;;;24.50;16.70;;;;;;;17.83;100.00;99064.20;109036;1257;73522;-62
2023/08/26 03:32:43;;;;;;;22.50;17.00;;;;;;;17.80;100.00;99054.98;109118;1257;59461;-62
2023/08/26 03:35:29;;;;;;;22.30;16.10;;;;;;;17.79;100.00;99049.64;109029;1257;61589;-62
2023/08/26 03:38:15;;;;;;;24.40;16.60;;;;;;;17.78;100.00;99052.41;109056;1257;73988;-62
2023/08/26 03:41:06;;;;;;;23.30;17.10;;;;;;;17.77;100.00;99056.16;109102;1257;67999;-62
2023/08/26 03:43:52;;;;;;;22.30;16.80;;;;;;;17.75;100.00;99060.70;109091;1257;73606;-62
2023/08/26 03:46:38;;;;;;;21.60;16.50;;;;;;;17.72;100.00;99058.34;109071;1260;57938;-63
2023/08/26 03:49:25;;;;;;;22.10;16.40;;;;;;;17.69;100.00;99064.94;109107;1260;61198;-63
2023/08/26 03:52:11;;;;;;;23.20;16.60;;;;;;;17.67;100.00;99065.07;109115;1257;71492;-62
2023/08/26 03:54:57;;;;;;;24.30;16.80;;;;;;;17.64;100.00;99058.30;109100;1257;68694;-62
2023/08/26 03:57:43;;;;;;;26.20;17.30;;;;;;;17.60;100.00;99053.36;109038;1258;71596;-62
2023/08/26 04:00:29;;;;;;;21.90;16.60;;;;;;;17.66;100.00;99062.46;109008;1261;59751;-63
2023/08/26 04:03:16;;;;;;;25.80;18.00;;;;;;;17.68;100.00;99061.91;109024;1260;60399;-63
2023/08/26 04:06:05;;;;;;;23.00;17.60;;;;;;;17.70;100.00;99065.40;108985;1258;74048;-61
2023/08/26 04:08:51;;;;;;;22.70;17.10;;;;;;;17.73;100.00;99068.50;109020;1259;66705;-61
2023/08/26 04:11:37;;;;;;;26.90;18.00;;;;;;;17.76;100.00;99070.59;108988;1259;73655;-62
2023/08/26 04:14:23;;;;;;;24.30;16.90;;;;;;;17.79;100.00;99074.77;108980;1260;60584;-63
2023/08/26 04:17:09;;;;;;;26.20;20.00;;;;;;;17.77;100.00;99067.96;109064;1261;61409;-62
2023/08/26 04:19:56;;;;;;;25.00;19.40;;;;;;;17.78;100.00;99067.83;108976;1258;72927;-62
2023/08/26 04:22:42;;;;;;;25.30;18.90;;;;;;;17.81;100.00;99069.83;109045;1259;67833;-62
2023/08/26 04:25:28;;;;;;;23.20;17.10;;;;;;;17.89;100.00;99068.64;108934;1260;71252;-63
2023/08/26 04:28:14;;;;;;;25.80;17.90;;;;;;;18.00;100.00;99075.93;108911;1259;59595;-62
2023/08/26 04:31:02;;;;;;;24.60;17.10;;;;;;;18.08;100.00;99072.94;108944;1259;58997;-64
2023/08/26 04:33:49;;;;;;;20.60;15.70;;;;;;;18.18;100.00;99071.14;108916;1260;73028;-61
2023/08/26 04:36:35;;;;;;;21.90;15.90;;;;;;;18.16;100.00;99073.92;108950;1260;68222;-60
2023/08/26 04:39:22;;;;;;;21.20;15.10;;;;;;;18.12;100.00;99078.16;108939;1260;72686;-61
2023/08/26 04:42:09;;;;;;;20.00;13.90;;;;;;;18.11;100.00;99079.60;109001;1259;59588;-61
2023/08/26 04:44:56;;;;;;;21.80;15.30;;;;;;;18.11;100.00;99077.06;109003;1261;61372;-62
2023/08/26 04:47:42;;;;;;;21.80;15.40;;;;;;;18.10;100.00;99070.56;108993;1260;73825;-62
2023/08/26 04:50:29;;;;;;;21.90;16.20;;;;;;;18.14;100.00;99069.89;109080;1259;67978;-60
2023/08/26 04:53:16;;;;;;;21.60;16.10;;;;;;;18.16;100.00;99064.77;108935;1260;72333;-61
2023/08/26 04:56:03;;;;;;;21.50;15.70;;;;;;;18.21;100.00;99066.12;108960;1258;60317;-61
2023/08/26 04:58:49;;;;;;;20.70;14.70;;;;;;;18.24;100.00;99070.65;108984;1259;60297;-61
2023/08/26 05:01:35;;;;;;;22.60;15.50;;;;;;;18.31;100.00;99072.61;108966;1259;71619;-60
2023/08/26 05:04:22;;;;;;;19.00;14.70;;;;;;;18.38;100.00;99074.39;109007;1259;67819;-60
2023/08/26 05:07:08;;;;;;;19.40;14.70;;;;;;;18.47;100.00;99077.36;108964;1260;72760;-60
2023/08/26 05:09:54;;;;;;;22.50;15.60;;;;;;;18.56;100.00;99073.45;108985;1260;59584;-60
2023/08/26 05:12:40;;;;;;;19.70;14.70;;;;;;;18.64;100.00;99079.89;108974;1260;61373;-61
2023/08/26 05:15:28;;;;;;;23.40;17.70;;;;;;;18.73;100.00;99086.18;108970;1259;71263;-60
2023/08/26 05:18:16;;;;;;;23.60;17.80;;;;;;;18.81;100.00;99086.65;109048;1259;68908;-59
2023/08/26 05:21:03;;;;;;;20.90;15.30;;;;;;;18.88;100.00;99089.70;109003;1259;72900;-61
2023/08/26 05:23:50;;;;;;;23.10;16.90;;;;;;;18.95;100.00;99090.27;108964;1257;59616;-61
2023/08/26 05:26:37;;;;;;;23.20;17.30;;;;;;;19.01;100.00;99086.52;108976;1258;58100;-64
2023/08/26 05:29:26;;;;;;;23.80;17.00;;;;;;;19.11;100.00;99089.33;109036;1257;72768;-62
2023/08/26 05:32:13;;;;;;;25.40;17.80;;;;;;;19.17;100.00;99095.95;109086;1257;68023;-62
2023/08/26 05:35:00;;;;;;;25.40;17.40;;;;;;;19.26;100.00;99097.98;109068;1257;73790;-62
2023/08/26 05:37:46;;;;;;;25.20;17.30;;;;;;;19.36;100.00;99094.05;109058;1257;60504;-61
2023/08/26 05:40:34;;;;;;;25.90;18.70;;;;;;;19.47;100.00;99093.98;109083;1257;60113;-64
2023/08/26 05:43:21;;;;;;;34.60;22.10;;;;;;;19.56;100.00;99090.91;108974;1257;73406;-62
2023/08/26 05:46:07;;;;;;;32.40;22.20;;;;;;;19.65;100.00;99091.48;109008;1257;69013;-63
2023/08/26 05:48:54;;;;;;;29.60;20.40;;;;;;;19.75;100.00;99087.45;109001;1257;72197;-64
2023/08/26 05:51:40;;;;;;;32.40;21.70;;;;;;;19.90;100.00;99086.98;108992;1260;58697;-64
2023/08/26 05:54:27;;;;;;;28.50;20.50;;;;;;;20.06;100.00;99086.39;108966;1257;60478;-64
2023/08/26 05:57:13;;;;;;;30.30;21.70;;;;;;;20.31;100.00;99077.52;109069;1257;71695;-63
2023/08/26 06:00:00;;;;;;;30.50;20.20;;;;;;;20.57;100.00;99084.06;109050;1257;68711;-65
2023/08/26 06:02:46;;;;;;;26.40;19.00;;;;;;;20.77;100.00;99094.09;109048;1257;73528;-64
2023/08/26 06:05:34;;;;;;;27.40;20.10;;;;;;;20.91;100.00;99092.30;109064;1257;60467;-64
2023/08/26 06:08:21;;;;;;;26.20;18.10;;;;;;;21.03;100.00;99090.27;109036;1257;61092;-64
2023/08/26 06:11:08;;;;;;;27.50;18.70;;;;;;;21.18;100.00;99089.48;108940;1260;74174;-66
2023/08/26 06:13:58;;;;;;;23.00;17.40;;;;;;;21.28;100.00;99097.92;109029;1257;68974;-65
2023/08/26 06:16:47;;;;;;;25.70;17.70;;;;;;;21.34;99.94;99095.98;108814;1260;73406;-65
2023/08/26 06:19:33;;;;;;;26.10;17.70;;;;;;;21.35;99.45;99095.69;108963;1260;60550;-65
2023/08/26 06:22:20;;;;;;;27.20;17.20;;;;;;;21.44;99.04;99096.98;108979;1262;60248;-66
2023/08/26 06:25:07;;;;;;;26.00;18.70;;;;;;;21.42;97.62;99098.79;108983;1259;71508;-65
2023/08/26 06:27:54;;;;;;;27.40;19.50;;;;;;;21.42;97.21;99100.12;109113;1257;66659;-66
2023/08/26 06:30:42;;;;;;;28.20;20.00;;;;;;;21.45;96.62;99102.56;108975;1260;72784;-66
2023/08/26 06:33:28;;;;;;;29.50;19.80;;;;;;;21.50;96.24;99098.64;109000;1259;58024;-65
2023/08/26 06:36:14;;;;;;;23.90;17.80;;;;;;;21.74;97.07;99091.98;108976;1259;60021;-67
2023/08/26 06:39:00;;;;;;;29.20;17.40;;;;;;;21.86;96.27;99097.45;109073;1258;72905;-64
2023/08/26 06:41:47;;;;;;;30.20;18.70;;;;;;;21.91;95.25;99101.48;108876;1260;173414;-63
2023/08/26 06:44:35;;;;;;;28.60;19.70;;;;;;;21.94;94.64;99100.04;108984;1259;73468;-63
2023/08/26 06:47:23;;;;;;;26.30;18.40;;;;;;;21.97;93.80;99098.42;109010;1259;59536;-65
2023/08/26 06:50:10;;;;;;;28.90;18.50;;;;;;;22.00;92.99;99103.20;109040;1259;60960;-69
2023/08/26 06:52:57;;;;;;;28.80;18.00;;;;;;;21.95;92.35;99105.19;109005;1258;73103;-66
2023/08/26 06:55:44;;;;;;;29.40;19.10;;;;;;;21.87;92.71;99103.33;109058;1259;67911;-64
2023/08/26 06:58:30;;;;;;;33.20;20.30;;;;;;;21.75;92.51;99098.75;109067;1257;73504;-65
2023/08/26 07:01:17;;;;;;;32.00;20.90;;;;;;;21.60;93.51;99104.29;109056;1257;58163;-67
2023/08/26 07:04:08;;;;;;;32.10;21.30;;;;;;;21.41;94.12;99102.15;109095;1257;61339;-68
2023/08/26 07:06:54;;;;;;;29.50;20.20;;;;;;;21.28;95.26;99110.86;109052;1257;73059;-65
2023/08/26 07:09:41;;;;;;;34.50;21.20;;;;;;;21.20;96.16;99117.33;109058;1257;67807;-68
2023/08/26 07:12:27;;;;;;;32.10;21.40;;;;;;;21.15;96.95;99118.60;109043;1257;71059;-67
2023/08/26 07:15:13;;;;;;;30.70;20.20;;;;;;;21.19;97.46;99122.58;109048;1257;58551;-70
2023/08/26 07:17:59;;;;;;;32.50;21.30;;;;;;;21.32;97.33;99123.20;109095;1257;58818;-67
2023/08/26 07:20:47;;;;;;;30.30;21.80;;;;;;;21.31;96.79;99119.85;109054;1257;73851;-67
2023/08/26 07:23:33;;;;;;;25.80;18.00;;;;;;;21.42;97.05;99124.48;109069;1257;66744;-67
2023/08/26 07:26:20;;;;;;;32.20;20.40;;;;;;;21.51;95.35;99129.70;108934;1257;71719;-68
2023/08/26 07:29:06;;;;;;;35.20;21.70;;;;;;;21.66;94.79;99136.91;108952;1257;59451;-66
2023/08/26 07:31:53;;;;;;;34.00;22.10;;;;;;;21.94;93.90;99137.45;108906;1259;59267;-68
2023/08/26 07:34:39;;;;;;;32.20;20.80;;;;;;;22.12;92.54;99146.65;108949;1260;72800;-68
2023/08/26 07:37:25;;;;;;;34.90;22.00;;;;;;;22.15;92.30;99143.96;109048;1258;68227;-67
2023/08/26 07:40:14;;;;;;;31.60;20.60;;;;;;;22.21;91.99;99146.89;108883;1259;72490;-65
2023/08/26 07:43:01;;;;;;;30.70;20.50;;;;;;;22.32;92.42;99150.84;109018;1258;58373;-65
2023/08/26 07:45:47;;;;;;;32.10;21.20;;;;;;;22.41;91.96;99150.34;108879;1260;61561;-65
2023/08/26 07:48:56;;;;;;;33.50;21.70;;;;;;;22.61;91.08;99151.08;108928;1259;72862;-64
2023/08/26 07:51:42;;;;;;;29.70;20.20;;;;;;;22.93;90.46;99154.61;109057;1259;67827;-64
2023/08/26 07:54:28;;;;;;;34.40;21.00;;;;;;;23.57;87.15;99155.99;108966;1259;71387;-65
2023/08/26 07:57:15;;;;;;;26.80;17.20;;;;;;;23.66;83.02;99151.10;109074;1259;57985;-67
2023/08/26 08:00:02;;;;;;;30.30;20.80;;;;;;;23.49;83.95;99147.90;108959;1259;60274;-67
2023/08/26 08:02:58;;;;;;;27.80;19.50;;;;;;;23.96;83.07;99146.42;109063;1259;73287;-65
2023/08/26 08:05:45;;;;;;;28.70;18.40;;;;;;;24.69;79.73;99142.59;108968;1259;67706;-67
2023/08/26 08:08:31;;;;;;;26.50;18.80;;;;;;;25.21;76.21;99146.91;109034;1259;72602;-66
2023/08/26 08:11:17;;;;;;;26.20;18.50;;;;;;;25.56;74.96;99146.77;109026;1258;57184;-66
2023/08/26 08:14:03;;;;;;;25.00;17.70;;;;;;;25.76;72.09;99144.34;109036;1259;60198;-67
2023/08/26 08:16:49;;;;;;;24.70;16.40;;;;;;;26.62;69.93;99141.48;108907;1259;71986;-67
2023/08/26 08:19:39;;;;;;;23.90;16.60;;;;;;;27.46;65.77;99137.48;108946;1260;66508;-66
2023/08/26 08:22:38;;;;;;;21.60;15.20;;;;;;;27.86;65.18;99144.98;108943;1259;73539;-68
2023/08/26 08:25:25;;;;;;;23.20;15.40;;;;;;;28.94;62.47;99141.27;108938;1259;57609;-66
2023/08/26 08:28:11;;;;;;;20.50;14.90;;;;;;;30.03;59.10;99139.70;108955;1259;59244;-68
2023/08/26 08:30:57;;;;;;;21.00;13.50;;;;;;;31.22;56.47;99130.26;109089;1257;73904;-68
2023/08/26 08:33:44;;;;;;;19.10;14.00;;;;;;;31.94;52.05;99126.61;109095;1257;68601;-68
2023/08/26 08:36:30;;;;;;;18.00;13.10;;;;;;;32.50;50.80;99131.59;109094;1257;73095;-66
2023/08/26 08:39:16;;;;;;;16.90;12.40;;;;;;;33.21;49.24;99126.12;109072;1257;57767;-66
2023/08/26 08:42:04;;;;;;;16.50;11.70;;;;;;;33.76;47.13;99130.35;109089;1257;59236;-67
2023/08/26 08:44:51;;;;;;;18.20;13.10;;;;;;;34.00;45.36;99131.77;109061;1257;72853;-67
2023/08/26 08:47:38;;;;;;;16.20;11.90;;;;;;;34.02;44.65;99127.88;109094;1257;68678;-70
2023/08/26 08:50:24;;;;;;;17.00;12.10;;;;;;;33.58;45.24;99115.67;109113;1257;72731;-67
2023/08/26 08:53:13;;;;;;;18.00;13.40;;;;;;;33.03;45.99;99109.35;109053;1258;57433;-69
2023/08/26 08:56:03;;;;;;;18.60;12.90;;;;;;;32.85;46.79;99105.28;108990;1258;59006;-69
2023/08/26 08:58:51;;;;;;;18.10;12.30;;;;;;;32.90;47.16;99100.55;109105;1257;72251;-69
2023/08/26 09:01:38;;;;;;;18.90;12.90;;;;;;;32.42;47.18;99108.59;109004;1258;68048;-68
2023/08/26 09:04:26;;;;;;;18.10;12.20;;;;;;;31.99;48.94;99114.42;109066;1258;72524;-68
2023/08/26 09:07:13;;;;;;;17.40;12.20;;;;;;;32.07;49.10;99121.73;108966;1260;58439;-68
2023/08/26 09:10:00;;;;;;;17.80;12.50;;;;;;;32.25;48.73;99125.69;109030;1258;59116;-74
2023/08/26 09:12:51;;;;;;;18.50;12.50;;;;;;;32.67;48.40;99128.94;109019;1258;73060;-73
2023/08/26 09:15:39;;;;;;;22.00;11.90;;;;;;;33.05;47.56;99124.69;108955;1260;67658;-74
2023/08/26 09:18:27;;;;;;;16.60;11.90;;;;;;;32.92;46.87;99125.54;109011;1258;72617;-74
2023/08/26 09:21:18;;;;;;;14.60;11.30;;;;;;;32.67;47.75;99123.60;108973;1258;57928;-73
2023/08/26 09:24:17;;;;;;;18.10;12.20;;;;;;;32.47;47.59;99118.24;109035;1258;59033;-75
2023/08/26 09:27:04;;;;;;;18.40;12.50;;;;;;;32.04;48.58;99120.66;109017;1258;72823;-75
2023/08/26 09:29:54;;;;;;;15.60;10.90;;;;;;;31.97;49.32;99119.27;108977;1258;66719;-69
2023/08/26 09:32:48;;;;;;;15.40;11.00;;;;;;;32.23;49.13;99117.83;109016;1260;71298;-69
2023/08/26 09:35:51;;;;;;;13.30;9.40;;;;;;;32.52;48.75;99119.25;108995;1258;57711;-69
2023/08/26 09:38:50;;;;;;;15.40;10.30;;;;;;;32.36;47.70;99117.78;109038;1258;58456;-68
2023/08/26 09:41:44;;;;;;;17.70;10.30;;;;;;;31.78;48.70;99117.89;108989;1260;72949;-68
2023/08/26 09:44:31;;;;;;;16.40;10.30;;;;;;;31.44;50.01;99115.05;108984;1259;67896;-68
2023/08/26 09:47:30;;;;;;;15.90;8.90;;;;;;;31.15;51.14;99119.47;108945;1258;72679;-69
2023/08/26 09:50:33;;;;;;;14.10;9.70;;;;;;;30.67;51.43;99122.52;109075;1259;58979;-69
2023/08/26 09:53:30;;;;;;;12.90;9.50;;;;;;;30.22;53.01;99122.91;109012;1258;60525;-72
2023/08/26 09:56:17;;;;;;;16.30;10.70;;;;;;;29.69;54.91;99117.70;108997;1258;71394;-71
2023/08/26 09:59:05;;;;;;;15.00;9.50;;;;;;;29.31;56.79;99117.48;109023;1258;67944;-64
2023/08/26 10:02:01;;;;;;;15.10;10.10;;;;;;;28.87;58.26;99121.08;109039;1257;72919;-62
2023/08/26 10:04:57;;;;;;;13.90;10.60;;;;;;;28.25;60.16;99116.33;109100;1257;59311;-62
2023/08/26 10:07:51;;;;;;;16.50;10.90;;;;;;;27.98;62.09;99117.73;108965;1257;59997;-62
2023/08/26 10:10:57;;;;;;;16.00;11.00;;;;;;;27.66;63.07;99114.20;109068;1257;71795;-63
2023/08/26 10:13:51;;;;;;;13.20;9.80;;;;;;;27.40;64.58;99115.49;109063;1257;67778;-62
2023/08/26 10:16:41;;;;;;;14.50;9.50;;;;;;;27.06;66.19;99115.71;108927;1258;73512;-69
2023/08/26 10:19:30;;;;;;;13.70;9.70;;;;;;;26.86;66.68;99112.20;108949;1258;57844;-70
2023/08/26 10:22:17;;;;;;;14.80;9.10;;;;;;;26.95;67.29;99114.36;109056;1258;60105;-71
2023/08/26 10:25:07;;;;;;;13.70;9.60;;;;;;;27.04;66.54;99105.64;108965;1261;73184;-67
2023/08/26 10:27:54;;;;;;;12.20;8.00;;;;;;;27.00;66.50;99102.10;108979;1258;68247;-62
2023/08/26 10:30:41;;;;;;;13.10;8.20;;;;;;;26.83;66.82;99100.31;108996;1258;73517;-63
2023/08/26 10:33:28;;;;;;;13.20;8.70;;;;;;;26.68;66.82;99106.77;108962;1261;57776;-63
2023/08/26 10:36:14;;;;;;;14.20;8.70;;;;;;;26.61;67.48;99109.43;108999;1258;61340;-64
2023/08/26 10:39:02;;;;;;;14.60;9.20;;;;;;;26.51;68.09;99111.02;109002;1258;73141;-62
2023/08/26 10:42:13;;;;;;;15.80;9.10;;;;;;;26.23;69.30;99105.73;109069;1257;67912;-61
2023/08/26 10:45:02;;;;;;;14.10;9.00;;;;;;;25.95;70.13;99113.10;109045;1257;72722;-60
2023/08/26 10:47:52;;;;;;;13.30;8.70;;;;;;;25.72;69.98;99117.10;109013;1258;57835;-61
2023/08/26 10:50:44;;;;;;;12.90;9.10;;;;;;;25.50;70.46;99114.84;108983;1258;61434;-62
2023/08/26 10:53:42;;;;;;;13.50;8.80;;;;;;;25.47;70.77;99122.63;108973;1258;73673;-63
2023/08/26 10:56:33;;;;;;;14.70;8.60;;;;;;;25.45;70.85;99126.61;108981;1258;68164;-60
2023/08/26 10:59:35;;;;;;;15.60;10.00;;;;;;;25.46;70.80;99126.90;108982;1258;72533;-67
2023/08/26 11:02:26;;;;;;;12.40;7.70;;;;;;;25.33;70.00;99130.90;108980;1258;58009;-64
2023/08/26 11:05:13;;;;;;;20.90;15.10;;;;;;;25.21;70.48;99134.92;108988;1258;60346;-66
2023/08/26 11:08:02;;;;;;;13.80;9.40;;;;;;;25.08;70.65;99135.07;108950;1258;72927;-65
2023/08/26 11:10:51;;;;;;;16.70;11.10;;;;;;;24.79;71.61;99136.90;108982;1258;67559;-68
2023/08/26 11:13:40;;;;;;;15.60;11.60;;;;;;;24.68;71.46;99138.92;109027;1258;74043;-65
2023/08/26 11:16:26;;;;;;;15.70;10.00;;;;;;;24.61;71.16;99140.41;108905;1258;60646;-65
2023/08/26 11:19:13;;;;;;;12.50;7.20;;;;;;;24.59;71.61;99138.41;108982;1258;60263;-64
2023/08/26 11:21:59;;;;;;;11.70;7.30;;;;;;;24.59;71.68;99146.24;108985;1258;74131;-65
2023/08/26 11:24:48;;;;;;;12.10;8.90;;;;;;;24.42;71.93;99149.34;109010;1258;67815;-63
2023/08/26 11:27:35;;;;;;;12.80;7.40;;;;;;;24.14;72.91;99157.19;108996;1258;72659;-63
2023/08/26 11:30:21;;;;;;;15.30;9.10;;;;;;;24.01;74.21;99164.19;108951;1258;57329;-65
2023/08/26 11:33:16;;;;;;;11.10;7.60;;;;;;;23.98;75.18;99172.83;109032;1258;60371;-65
2023/08/26 11:36:02;;;;;;;11.70;7.40;;;;;;;23.93;75.52;99169.47;108938;1258;73071;-64
2023/08/26 11:38:55;;;;;;;13.30;9.10;;;;;;;23.83;75.41;99168.98;109040;1258;67683;-63
2023/08/26 11:41:45;;;;;;;13.70;9.00;;;;;;;23.75;76.11;99164.56;108970;1259;72530;-65
2023/08/26 11:44:31;;;;;;;13.70;8.10;;;;;;;23.72;76.07;99164.85;108972;1260;59125;-64
2023/08/26 11:47:18;;;;;;;15.80;8.30;;;;;;;23.70;76.33;99173.39;108943;1259;61040;-67
2023/08/26 11:50:05;;;;;;;12.30;7.90;;;;;;;23.64;76.37;99167.73;108971;1259;73951;-66
2023/08/26 11:52:54;;;;;;;13.00;8.00;;;;;;;23.58;76.14;99153.60;108953;1260;68880;-66
2023/08/26 11:55:40;;;;;;;15.40;7.80;;;;;;;23.58;76.39;99151.80;108927;1259;73739;-64
2023/08/26 11:58:27;;;;;;;12.10;7.40;;;;;;;23.56;76.68;99157.52;108910;1261;57709;-67
2023/08/26 12:01:15;;;;;;;18.90;8.30;;;;;;;23.76;76.11;99159.04;108980;1260;60454;-66
2023/08/26 12:04:13;;;;;;;12.40;7.50;;;;;;;24.03;75.16;99158.19;108967;1260;72835;-66
2023/08/26 12:07:07;;;;;;;10.50;6.70;;;;;;;24.35;73.58;99154.04;108999;1259;67785;-66
2023/08/26 12:09:54;;;;;;;12.90;6.90;;;;;;;24.69;72.58;99154.61;108992;1259;73377;-68
2023/08/26 12:12:42;;;;;;;12.70;6.30;;;;;;;24.98;71.82;99158.69;109020;1258;57673;-67
2023/08/26 12:15:29;;;;;;;10.70;6.70;;;;;;;25.35;70.75;99159.61;109071;1257;60042;-66
2023/08/26 12:18:19;;;;;;;10.10;6.00;;;;;;;25.90;69.42;99162.17;109004;1257;73044;-64
2023/08/26 12:21:06;;;;;;;11.20;6.00;;;;;;;26.34;67.19;99167.73;109075;1257;67959;-65
2023/08/26 12:23:56;;;;;;;10.80;6.10;;;;;;;26.47;65.25;99163.32;109012;1257;72769;-64
2023/08/26 12:26:42;;;;;;;12.40;6.50;;;;;;;26.63;64.16;99156.65;109019;1257;57678;-67
2023/08/26 12:29:28;;;;;;;12.50;7.00;;;;;;;26.62;63.76;99160.04;109107;1257;60091;-65
2023/08/26 12:32:14;;;;;;;10.70;6.80;;;;;;;26.52;63.52;99155.94;109003;1257;74052;-64
2023/08/26 12:35:02;;;;;;;11.50;6.60;;;;;;;26.53;63.62;99149.20;109025;1257;67786;-66
2023/08/26 12:37:49;;;;;;;11.00;6.60;;;;;;;26.59;63.99;99147.60;108937;1257;71299;-64
2023/08/26 12:40:39;;;;;;;12.50;7.30;;;;;;;26.78;63.61;99149.90;109048;1257;59119;-67
2023/08/26 12:43:26;;;;;;;11.60;7.00;;;;;;;26.92;62.36;99152.75;108996;1258;60568;-65